Time;durP1;ratioP1;P1;durP2;ratioP2;P2;SDS_P1;SDS_P2;PMS_P1;PMS_P2;Temp;Humidity;BMP_temperature;BMP_pressure;BME280_temperature;BME280_humidity;BME280_pressure;Samples;Min_cycle;Max_cycle;Signal;HPM_P1;HPM_P2
2023/05/07 00:00:46;;;;;;;30.80;21.60;;;13.30;99.90;;;;;;5017990;28;20087;-56
2023/05/07 00:03:13;;;;;;;33.40;22.35;;;13.10;99.90;;;;;;5025384;28;20041;-58
2023/05/07 00:05:39;;;;;;;29.23;20.50;;;13.50;99.90;;;;;;5022294;28;20104;-59
2023/05/07 00:08:05;;;;;;;30.88;22.02;;;13.00;99.90;;;;;;5018580;28;20581;-56
2023/05/07 00:10:30;;;;;;;26.80;19.20;;;13.50;99.90;;;;;;5028387;28;20076;-57
2023/05/07 00:12:56;;;;;;;28.00;21.63;;;13.00;99.90;;;;;;5028989;28;20072;-58
2023/05/07 00:15:22;;;;;;;30.40;21.50;;;13.70;99.90;;;;;;5025874;28;20092;-59
2023/05/07 00:17:47;;;;;;;27.88;20.73;;;13.60;99.90;;;;;;5028410;28;20053;-58
2023/05/07 00:20:13;;;;;;;27.70;19.95;;;13.20;99.90;;;;;;5024791;28;20041;-57
2023/05/07 00:22:39;;;;;;;27.63;20.10;;;13.10;99.90;;;;;;5030051;28;20051;-61
2023/05/07 00:25:05;;;;;;;34.38;23.08;;;13.10;1.00;;;;;;5023375;28;20040;-58
2023/05/07 00:27:31;;;;;;;28.42;19.77;;;13.00;1.00;;;;;;5016640;28;20272;-58
2023/05/07 00:29:56;;;;;;;28.27;20.15;;;12.80;1.00;;;;;;5032590;28;20040;-58
2023/05/07 00:32:22;;;;;;;31.88;21.17;;;13.50;1.00;;;;;;5034038;28;20055;-57
2023/05/07 00:34:48;;;;;;;31.70;21.58;;;12.80;1.00;;;;;;5017447;28;20450;-57
2023/05/07 00:37:13;;;;;;;27.58;19.85;;;13.10;1.00;;;;;;5026656;28;20037;-59
2023/05/07 00:39:39;;;;;;;30.50;21.20;;;13.30;1.00;;;;;;5026146;28;20477;-59
2023/05/07 00:42:05;;;;;;;33.95;22.92;;;;;;;;;;5032419;28;20151;-58
2023/05/07 00:44:31;;;;;;;28.90;20.60;;;13.10;1.00;;;;;;5025737;28;20357;-56
2023/05/07 00:46:57;;;;;;;32.10;21.45;;;12.50;1.00;;;;;;5054610;28;20158;-58
2023/05/07 00:49:32;;;;;;;30.35;20.73;;;13.00;1.00;;;;;;5029550;28;20090;-58
2023/05/07 00:52:00;;;;;;;30.02;20.90;;;13.10;1.00;;;;;;5022912;28;20627;-58
2023/05/07 00:54:26;;;;;;;30.58;21.63;;;13.60;1.00;;;;;;5020322;28;20041;-58
2023/05/07 00:56:52;;;;;;;29.65;21.88;;;13.50;1.00;;;;;;5020883;28;20644;-56
2023/05/07 00:59:18;;;;;;;29.83;21.13;;;13.00;1.00;;;;;;5032464;28;20118;-58
2023/05/07 01:01:43;;;;;;;31.70;22.70;;;13.00;1.00;;;;;;5026581;28;20522;-58
2023/05/07 01:04:09;;;;;;;28.73;20.40;;;13.00;1.00;;;;;;5032334;28;20319;-57
2023/05/07 01:06:35;;;;;;;28.88;20.45;;;12.90;1.00;;;;;;5019361;28;20103;-58
2023/05/07 01:09:01;;;;;;;28.45;20.10;;;13.50;1.00;;;;;;5031918;28;20219;-56
2023/05/07 01:11:27;;;;;;;25.98;20.13;;;13.00;1.00;;;;;;5026041;28;20060;-58
2023/05/07 01:13:54;;;;;;;28.20;20.20;;;13.00;1.00;;;;;;5028514;28;20102;-58
2023/05/07 01:16:20;;;;;;;28.00;20.60;;;12.70;1.00;;;;;;5030759;28;20063;-58
2023/05/07 01:18:48;;;;;;;27.88;21.15;;;13.20;1.00;;;;;;5026993;28;20045;-57
2023/05/07 01:21:16;;;;;;;27.63;19.95;;;13.00;1.00;;;;;;5024116;28;20049;-58
2023/05/07 01:23:43;;;;;;;31.10;21.45;;;13.10;1.00;;;;;;5018489;28;20099;-58
2023/05/07 01:26:08;;;;;;;26.35;19.55;;;13.30;1.00;;;;;;5028213;28;20049;-57
2023/05/07 01:28:34;;;;;;;31.73;21.73;;;13.40;1.00;;;;;;5018794;28;20072;-58
2023/05/07 01:31:05;;;;;;;27.50;20.60;;;13.20;1.00;;;;;;5031188;28;20479;-57
2023/05/07 01:33:34;;;;;;;30.75;22.25;;;13.00;1.00;;;;;;5024156;28;20089;-57
2023/05/07 01:36:03;;;;;;;30.67;21.48;;;13.00;1.00;;;;;;5021714;28;20045;-58
2023/05/07 01:38:29;;;;;;;32.70;21.65;;;12.90;1.00;;;;;;5025132;28;20044;-58
2023/05/07 01:40:55;;;;;;;29.40;21.45;;;12.90;1.00;;;;;;5021392;28;20419;-58
2023/05/07 01:43:21;;;;;;;32.53;23.15;;;13.20;11.00;;;;;;5025488;28;20056;-58
2023/05/07 01:45:48;;;;;;;33.72;23.38;;;13.30;18.10;;;;;;5007039;28;20049;-58
2023/05/07 01:48:15;;;;;;;28.90;21.10;;;12.90;21.90;;;;;;5023117;28;20040;-58
2023/05/07 01:50:42;;;;;;;29.65;21.27;;;12.70;18.90;;;;;;5021403;28;20239;-58
2023/05/07 01:53:08;;;;;;;30.25;21.55;;;13.10;35.90;;;;;;5028305;28;20174;-58
2023/05/07 01:55:34;;;;;;;32.65;22.10;;;12.90;38.60;;;;;;5019392;28;20495;-58
2023/05/07 01:57:59;;;;;;;32.97;23.70;;;13.30;62.60;;;;;;5033448;28;20048;-58
2023/05/07 02:00:25;;;;;;;29.88;22.50;;;12.80;71.60;;;;;;5018288;28;20049;-58
2023/05/07 02:02:52;;;;;;;30.05;22.35;;;13.10;69.40;;;;;;5033345;28;20391;-58
2023/05/07 02:05:18;;;;;;;29.35;22.27;;;13.20;93.40;;;;;;5023168;28;20041;-57
2023/05/07 02:07:44;;;;;;;34.75;23.30;;;;;;;;;;5015405;28;20463;-58
2023/05/07 02:10:10;;;;;;;32.20;24.00;;;12.80;80.60;;;;;;5030586;28;20052;-57
2023/05/07 02:12:35;;;;;;;30.73;23.58;;;12.40;99.40;;;;;;5017665;28;20440;-57
2023/05/07 02:15:01;;;;;;;32.75;24.88;;;12.60;99.90;;;;;;5014836;28;20067;-57
2023/05/07 02:17:27;;;;;;;36.35;25.88;;;13.10;97.20;;;;;;5019429;28;20038;-57
2023/05/07 02:19:52;;;;;;;34.75;23.67;;;12.90;99.90;;;;;;5010309;28;20431;-57
2023/05/07 02:22:18;;;;;;;31.67;25.67;;;13.20;99.90;;;;;;5021912;28;20554;-56
2023/05/07 02:24:44;;;;;;;33.88;23.58;;;12.70;99.90;;;;;;5018564;28;20067;-57
2023/05/07 02:27:10;;;;;;;34.22;24.83;;;12.60;99.80;;;;;;5021028;28;20466;-58
2023/05/07 02:29:35;;;;;;;35.10;24.20;;;12.70;99.90;;;;;;5014197;28;20449;-58
2023/05/07 02:32:01;;;;;;;35.17;24.20;;;12.50;99.90;;;;;;5022282;28;20223;-57
2023/05/07 02:34:27;;;;;;;36.83;26.33;;;12.80;99.90;;;;;;5020509;28;20048;-56
2023/05/07 02:36:52;;;;;;;33.78;23.63;;;12.80;99.90;;;;;;5021560;28;20047;-57
2023/05/07 02:39:18;;;;;;;31.90;25.08;;;12.50;99.90;;;;;;5020280;28;20255;-56
2023/05/07 02:41:44;;;;;;;30.95;22.92;;;;;;;;;;5025721;28;20222;-58
2023/05/07 02:44:09;;;;;;;32.65;23.73;;;12.70;99.90;;;;;;5028265;28;20458;-55
2023/05/07 02:46:35;;;;;;;34.88;24.02;;;12.50;99.90;;;;;;5027606;28;20045;-57
2023/05/07 02:49:01;;;;;;;34.38;24.55;;;12.60;99.90;;;;;;5021892;28;20033;-57
2023/05/07 02:51:27;;;;;;;33.88;25.67;;;12.60;99.90;;;;;;5043307;28;20064;-55
2023/05/07 02:53:53;;;;;;;32.38;24.48;;;12.80;99.90;;;;;;5017253;28;20041;-56
2023/05/07 02:56:20;;;;;;;33.08;23.65;;;;;;;;;;5020293;28;20070;-57
2023/05/07 02:58:47;;;;;;;33.83;24.90;;;;;;;;;;5027054;28;20048;-56
2023/05/07 03:01:13;;;;;;;34.08;25.02;;;12.70;99.90;;;;;;5027606;28;20045;-55
2023/05/07 03:03:39;;;;;;;38.50;26.15;;;12.90;99.90;;;;;;5027925;28;20414;-56
2023/05/07 03:06:06;;;;;;;34.65;26.50;;;;;;;;;;5028916;28;20048;-56
2023/05/07 03:08:32;;;;;;;37.10;26.20;;;12.70;99.90;;;;;;5014791;28;20049;-56
2023/05/07 03:10:58;;;;;;;36.70;26.50;;;12.70;99.90;;;;;;5020692;28;20436;-56
2023/05/07 03:13:24;;;;;;;34.38;25.13;;;;;;;;;;5023403;28;20048;-56
2023/05/07 03:15:50;;;;;;;36.47;25.85;;;12.90;99.90;;;;;;5015259;28;20103;-55
2023/05/07 03:18:16;;;;;;;31.73;24.45;;;12.50;99.90;;;;;;5022525;28;20045;-57
2023/05/07 03:20:41;;;;;;;34.88;24.63;;;12.70;99.90;;;;;;5019179;28;20732;-56
2023/05/07 03:23:07;;;;;;;37.95;26.70;;;;;;;;;;5014746;28;20049;-57
2023/05/07 03:25:33;;;;;;;36.30;26.38;;;12.50;99.90;;;;;;5018627;28;20037;-54
2023/05/07 03:27:59;;;;;;;37.80;26.05;;;12.30;99.90;;;;;;5022076;28;20045;-55
2023/05/07 03:30:25;;;;;;;34.97;25.42;;;12.40;99.90;;;;;;5026870;28;20033;-57
2023/05/07 03:32:50;;;;;;;36.08;25.02;;;12.50;99.90;;;;;;5024588;28;20427;-56
2023/05/07 03:35:16;;;;;;;34.83;25.30;;;12.50;99.90;;;;;;5026693;28;20314;-54
2023/05/07 03:37:42;;;;;;;33.05;23.88;;;12.50;99.90;;;;;;5017141;28;20071;-58
2023/05/07 03:40:09;;;;;;;37.08;25.67;;;12.50;99.90;;;;;;5021596;28;20048;-57
2023/05/07 03:42:35;;;;;;;34.58;24.67;;;12.50;99.90;;;;;;5015064;28;20925;-56
2023/05/07 03:45:01;;;;;;;35.78;25.67;;;12.50;99.90;;;;;;5026297;28;20076;-58
2023/05/07 03:47:27;;;;;;;35.40;25.40;;;12.70;99.90;;;;;;5023926;28;20044;-58
2023/05/07 03:49:53;;;;;;;35.92;26.27;;;12.30;99.90;;;;;;5022351;28;20044;-54
2023/05/07 03:52:23;;;;;;;35.08;25.20;;;12.10;99.90;;;;;;5036312;28;20049;-56
2023/05/07 03:54:49;;;;;;;33.67;25.67;;;12.40;99.90;;;;;;5018604;28;20037;-56
2023/05/07 03:57:15;;;;;;;36.50;25.38;;;12.70;99.90;;;;;;5034827;28;20704;-54
2023/05/07 03:59:41;;;;;;;36.22;25.52;;;;;;;;;;5024661;28;20172;-58
2023/05/07 04:02:07;;;;;;;35.95;26.00;;;12.00;99.90;;;;;;5015427;28;20044;-56
2023/05/07 04:04:32;;;;;;;35.80;24.73;;;12.70;99.90;;;;;;5011009;28;20041;-55
2023/05/07 04:07:00;;;;;;;37.33;25.55;;;;;;;;;;5008671;28;20156;-57
2023/05/07 04:09:25;;;;;;;35.67;26.00;;;12.30;99.90;;;;;;5018359;28;20064;-56
2023/05/07 04:11:51;;;;;;;34.58;25.77;;;12.10;99.90;;;;;;5017483;28;20053;-57
2023/05/07 04:14:17;;;;;;;36.55;25.75;;;13.00;99.90;;;;;;5028841;28;20120;-55
2023/05/07 04:16:42;;;;;;;38.08;26.35;;;12.20;99.90;;;;;;5025544;28;20429;-57
2023/05/07 04:19:08;;;;;;;37.22;26.02;;;12.70;99.90;;;;;;5025110;28;20052;-56
2023/05/07 04:21:34;;;;;;;36.92;27.77;;;12.20;99.90;;;;;;5024611;28;20098;-56
2023/05/07 04:23:59;;;;;;;36.95;26.35;;;12.30;99.90;;;;;;5019663;28;20083;-57
2023/05/07 04:26:25;;;;;;;40.65;27.63;;;12.30;99.90;;;;;;5027517;28;20041;-57
2023/05/07 04:28:51;;;;;;;38.85;25.77;;;12.10;99.90;;;;;;5036251;28;20532;-56
2023/05/07 04:31:16;;;;;;;39.15;27.02;;;12.10;99.90;;;;;;5034587;28;20080;-56
2023/05/07 04:33:42;;;;;;;38.35;26.23;;;12.20;99.90;;;;;;5021182;28;20454;-57
2023/05/07 04:36:08;;;;;;;36.88;24.90;;;13.00;99.90;;;;;;5022115;28;20506;-56
2023/05/07 04:38:33;;;;;;;34.70;24.15;;;12.20;99.90;;;;;;5026848;28;20037;-55
2023/05/07 04:41:06;;;;;;;39.60;27.27;;;12.40;99.90;;;;;;5022067;28;20119;-56
2023/05/07 04:43:32;;;;;;;36.72;26.60;;;12.40;99.90;;;;;;5021642;28;20187;-57
2023/05/07 04:45:58;;;;;;;36.65;26.63;;;12.30;99.90;;;;;;5027867;28;20041;-58
2023/05/07 04:48:24;;;;;;;37.00;26.13;;;12.20;99.90;;;;;;5021844;28;20055;-56
2023/05/07 04:50:50;;;;;;;38.22;26.55;;;12.30;99.90;;;;;;5023719;28;20041;-57
2023/05/07 04:53:17;;;;;;;36.90;27.58;;;12.30;99.90;;;;;;5022434;28;20095;-55
2023/05/07 04:55:43;;;;;;;38.58;28.20;;;12.60;99.90;;;;;;5027061;28;20025;-56
2023/05/07 04:58:09;;;;;;;36.67;26.10;;;12.20;99.90;;;;;;5022077;28;20483;-56
2023/05/07 05:00:34;;;;;;;41.83;28.25;;;12.30;99.90;;;;;;5019195;28;20499;-55
2023/05/07 05:03:00;;;;;;;40.85;27.27;;;13.00;99.90;;;;;;5028082;28;20702;-55
2023/05/07 05:05:26;;;;;;;38.50;26.70;;;12.20;99.90;;;;;;5023121;28;20045;-56
2023/05/07 05:07:51;;;;;;;38.53;26.27;;;12.60;99.90;;;;;;5023166;28;20052;-53
2023/05/07 05:10:17;;;;;;;40.22;27.85;;;12.50;99.90;;;;;;5024161;28;20751;-54
2023/05/07 05:12:44;;;;;;;39.70;26.77;;;12.30;99.90;;;;;;5026838;28;20328;-57
2023/05/07 05:15:12;;;;;;;37.45;26.58;;;12.40;99.90;;;;;;5033493;28;20374;-54
2023/05/07 05:17:38;;;;;;;39.38;27.30;;;12.50;99.90;;;;;;5017470;28;20491;-58
2023/05/07 05:20:04;;;;;;;38.55;27.65;;;12.60;99.90;;;;;;5034799;28;20209;-56
2023/05/07 05:22:31;;;;;;;41.25;27.38;;;12.50;99.90;;;;;;5021840;28;20041;-55
2023/05/07 05:24:57;;;;;;;39.80;27.45;;;12.40;99.90;;;;;;5035460;28;20044;-57
2023/05/07 05:27:22;;;;;;;38.08;27.13;;;12.60;99.90;;;;;;5021009;28;20415;-54
2023/05/07 05:29:48;;;;;;;36.75;25.38;;;13.00;99.90;;;;;;5037802;28;20133;-56
2023/05/07 05:32:14;;;;;;;37.58;25.92;;;12.60;99.90;;;;;;5029439;28;20407;-56
2023/05/07 05:34:39;;;;;;;41.75;27.63;;;12.50;99.90;;;;;;5019027;28;20599;-55
2023/05/07 05:37:05;;;;;;;36.88;26.98;;;12.50;99.90;;;;;;5026996;28;20029;-56
2023/05/07 05:39:31;;;;;;;37.80;27.10;;;12.60;99.90;;;;;;5020094;28;20099;-57
2023/05/07 05:41:56;;;;;;;37.08;26.98;;;13.20;99.90;;;;;;5023928;28;20124;-55
2023/05/07 05:44:22;;;;;;;40.03;26.60;;;12.60;99.90;;;;;;5020852;28;20394;-55
2023/05/07 05:46:49;;;;;;;39.88;27.02;;;12.50;99.90;;;;;;5022645;28;20069;-56
2023/05/07 05:49:15;;;;;;;34.72;25.58;;;13.60;99.90;;;;;;5021429;28;20138;-55
2023/05/07 05:51:41;;;;;;;39.63;27.80;;;12.50;99.90;;;;;;5022583;28;20065;-57
2023/05/07 05:54:06;;;;;;;41.15;28.08;;;12.60;99.90;;;;;;5022494;28;20185;-56
2023/05/07 05:56:32;;;;;;;36.05;25.98;;;12.70;76.20;;;;;;5023049;28;20087;-56
2023/05/07 05:58:58;;;;;;;36.45;25.38;;;12.40;49.80;;;;;;4997891;28;20371;-58
2023/05/07 06:01:24;;;;;;;36.63;25.08;;;12.80;56.60;;;;;;5021684;28;20388;-55
2023/05/07 06:03:49;;;;;;;38.10;26.55;;;12.80;99.90;;;;;;5022862;28;20095;-55
2023/05/07 06:06:15;;;;;;;41.22;27.10;;;12.70;52.50;;;;;;5020291;28;20323;-57
2023/05/07 06:08:41;;;;;;;41.40;28.17;;;12.70;16.00;;;;;;5022243;28;20072;-55
2023/05/07 06:11:07;;;;;;;35.50;26.33;;;13.30;1.00;;;;;;5018136;28;20036;-56
2023/05/07 06:13:33;;;;;;;35.50;26.00;;;12.90;1.00;;;;;;5025119;28;20049;-54
2023/05/07 06:15:58;;;;;;;41.78;28.45;;;12.70;1.00;;;;;;5016146;28;20458;-54
2023/05/07 06:18:24;;;;;;;39.17;27.08;;;12.30;1.00;;;;;;5023528;28;20090;-56
2023/05/07 06:20:51;;;;;;;35.15;26.50;;;12.50;1.00;;;;;;5023488;28;20129;-56
2023/05/07 06:23:17;;;;;;;35.92;25.42;;;12.60;1.00;;;;;;5021110;28;20076;-57
2023/05/07 06:25:48;;;;;;;36.53;25.65;;;12.80;1.00;;;;;;5019803;28;20132;-54
2023/05/07 06:28:14;;;;;;;34.13;25.35;;;13.10;1.00;;;;;;5018016;28;20044;-56
2023/05/07 06:30:40;;;;;;;37.65;24.92;;;13.60;1.00;;;;;;5022396;28;20048;-56
2023/05/07 06:33:05;;;;;;;33.38;26.05;;;13.20;99.90;;;;;;5018805;28;20072;-56
2023/05/07 06:35:31;;;;;;;36.72;25.85;;;13.20;99.90;;;;;;5026941;28;20041;-57
2023/05/07 06:37:57;;;;;;;34.72;24.50;;;13.10;99.90;;;;;;5017685;28;20041;-54
2023/05/07 06:40:22;;;;;;;36.85;26.23;;;13.00;99.90;;;;;;5017123;28;20494;-57
2023/05/07 06:42:48;;;;;;;36.35;24.38;;;13.20;99.90;;;;;;5017038;28;20090;-56
2023/05/07 06:45:14;;;;;;;35.05;24.25;;;13.20;99.90;;;;;;5026895;28;20712;-56
2023/05/07 06:47:39;;;;;;;32.13;23.52;;;13.30;99.90;;;;;;5028218;28;20427;-56
2023/05/07 06:50:06;;;;;;;31.92;23.75;;;13.50;99.90;;;;;;5017773;28;20037;-55
2023/05/07 06:52:31;;;;;;;31.15;23.05;;;13.10;99.90;;;;;;5018338;28;20380;-55
2023/05/07 06:54:57;;;;;;;33.67;23.80;;;13.40;99.90;;;;;;5001761;28;20056;-54
2023/05/07 06:57:23;;;;;;;30.98;23.13;;;13.20;99.90;;;;;;5020913;28;20947;-56
2023/05/07 06:59:49;;;;;;;34.25;24.05;;;13.40;99.90;;;;;;5018225;28;20052;-55
2023/05/07 07:02:15;;;;;;;31.63;24.92;;;13.70;99.90;;;;;;5018712;28;20045;-57
2023/05/07 07:04:41;;;;;;;32.35;24.17;;;14.80;99.90;;;;;;5015110;28;20585;-53
2023/05/07 07:07:07;;;;;;;30.65;22.90;;;13.80;99.90;;;;;;5019053;28;20105;-55
2023/05/07 07:09:33;;;;;;;31.38;22.00;;;13.70;99.90;;;;;;5030009;28;20536;-52
2023/05/07 07:11:59;;;;;;;30.92;23.75;;;13.60;99.90;;;;;;5019646;28;20523;-55
2023/05/07 07:14:24;;;;;;;29.25;21.83;;;13.30;99.90;;;;;;5016977;28;20033;-55
2023/05/07 07:16:50;;;;;;;30.85;22.55;;;13.80;99.90;;;;;;5014940;28;20037;-57
2023/05/07 07:19:16;;;;;;;32.25;23.50;;;13.90;99.90;;;;;;5018530;28;20038;-57
2023/05/07 07:21:42;;;;;;;27.25;20.17;;;14.10;99.90;;;;;;5020455;28;20654;-57
2023/05/07 07:24:08;;;;;;;25.98;21.65;;;13.80;99.90;;;;;;5017324;28;20033;-53
2023/05/07 07:26:34;;;;;;;26.65;21.27;;;14.00;99.90;;;;;;5024404;28;20034;-55
2023/05/07 07:28:59;;;;;;;26.70;20.15;;;13.70;99.90;;;;;;5021006;28;20052;-57
2023/05/07 07:31:25;;;;;;;27.10;20.25;;;13.80;99.90;;;;;;5023028;28;20671;-55
2023/05/07 07:33:50;;;;;;;26.27;19.90;;;14.20;99.90;;;;;;5017406;28;20056;-55
2023/05/07 07:36:16;;;;;;;28.00;20.98;;;14.20;95.60;;;;;;5018635;28;20049;-53
2023/05/07 07:38:42;;;;;;;26.23;19.75;;;14.20;99.90;;;;;;5013820;28;20360;-56
2023/05/07 07:41:10;;;;;;;30.33;21.63;;;14.60;96.30;;;;;;5018899;28;20103;-54
2023/05/07 07:43:36;;;;;;;30.02;21.63;;;14.30;57.70;;;;;;5013170;28;20593;-54
2023/05/07 07:46:02;;;;;;;25.55;20.42;;;13.80;1.00;;;;;;5018604;28;20451;-54
2023/05/07 07:48:27;;;;;;;26.05;20.92;;;14.10;1.00;;;;;;5011253;28;20045;-56
2023/05/07 07:50:53;;;;;;;27.45;20.10;;;14.50;1.00;;;;;;5001969;28;20048;-56
2023/05/07 07:53:19;;;;;;;25.90;20.33;;;14.80;99.90;;;;;;5018723;28;20042;-56
2023/05/07 07:55:44;;;;;;;25.15;19.02;;;14.70;99.90;;;;;;5017750;28;20040;-57
2023/05/07 07:58:10;;;;;;;24.48;19.38;;;14.90;99.90;;;;;;5018078;28;20419;-57
2023/05/07 08:00:36;;;;;;;27.67;21.10;;;14.20;99.90;;;;;;5017408;28;20479;-57
2023/05/07 08:03:03;;;;;;;27.42;20.50;;;14.90;99.90;;;;;;5015747;28;20455;-57
2023/05/07 08:05:29;;;;;;;25.15;19.13;;;15.00;99.90;;;;;;5017553;28;20073;-56
2023/05/07 08:07:55;;;;;;;26.65;19.73;;;14.70;99.90;;;;;;5019842;28;20145;-56
2023/05/07 08:10:21;;;;;;;28.50;20.92;;;15.20;99.90;;;;;;5018159;28;20029;-56
2023/05/07 08:12:51;;;;;;;27.08;19.05;;;14.60;99.90;;;;;;5016593;28;20042;-56
2023/05/07 08:15:17;;;;;;;26.00;19.05;;;14.80;99.90;;;;;;5018096;28;20063;-56
2023/05/07 08:17:43;;;;;;;21.83;17.77;;;14.90;99.90;;;;;;5015708;28;20037;-56
2023/05/07 08:20:09;;;;;;;25.42;19.65;;;15.30;99.90;;;;;;5002108;28;20048;-57
2023/05/07 08:22:35;;;;;;;28.90;20.48;;;14.90;99.90;;;;;;5017144;28;20426;-54
2023/05/07 08:25:01;;;;;;;25.35;20.33;;;15.00;99.90;;;;;;5037619;28;20363;-55
2023/05/07 08:27:27;;;;;;;25.60;20.08;;;15.10;99.90;;;;;;5019718;28;20037;-55
2023/05/07 08:29:53;;;;;;;23.17;18.42;;;15.30;99.90;;;;;;5024664;28;20037;-56
2023/05/07 08:32:19;;;;;;;21.13;17.70;;;15.10;99.90;;;;;;5029134;28;20426;-56
2023/05/07 08:34:44;;;;;;;23.73;18.23;;;13.60;99.90;;;;;;5018276;28;20041;-54
2023/05/07 08:37:10;;;;;;;25.95;19.88;;;15.20;99.90;;;;;;5020382;28;20301;-56
2023/05/07 08:39:36;;;;;;;24.88;18.65;;;15.70;99.90;;;;;;5027403;28;20045;-56
2023/05/07 08:42:04;;;;;;;24.33;19.02;;;15.90;99.90;;;;;;5019052;28;20133;-56
2023/05/07 08:44:33;;;;;;;22.23;18.02;;;15.90;99.90;;;;;;5006566;28;20520;-55
2023/05/07 08:47:01;;;;;;;22.27;18.50;;;15.50;99.90;;;;;;5021435;28;20072;-54
2023/05/07 08:49:30;;;;;;;23.92;19.05;;;15.30;72.30;;;;;;5018765;28;20050;-57
2023/05/07 08:51:56;;;;;;;23.52;18.38;;;15.60;5.60;;;;;;5020557;28;20388;-55
2023/05/07 08:54:22;;;;;;;23.83;18.50;;;15.20;41.10;;;;;;5017850;28;20076;-56
2023/05/07 08:56:48;;;;;;;25.58;19.95;;;15.00;1.00;;;;;;5016644;28;20088;-53
2023/05/07 08:59:14;;;;;;;24.85;19.42;;;15.80;1.00;;;;;;5027728;28;20061;-56
2023/05/07 09:01:40;;;;;;;28.25;20.20;;;15.90;1.00;;;;;;5021623;28;20041;-57
2023/05/07 09:04:06;;;;;;;25.17;20.45;;;15.80;99.90;;;;;;5022409;28;20052;-55
2023/05/07 09:06:33;;;;;;;23.98;19.60;;;15.90;99.90;;;;;;5023750;28;20064;-57
2023/05/07 09:09:01;;;;;;;24.55;19.90;;;15.80;99.90;;;;;;5023301;28;20051;-57
2023/05/07 09:11:27;;;;;;;22.88;18.75;;;15.80;99.90;;;;;;5025253;28;20041;-56
2023/05/07 09:13:57;;;;;;;25.17;19.17;;;16.00;99.90;;;;;;5016210;28;20046;-55
2023/05/07 09:16:24;;;;;;;25.90;19.23;;;15.90;99.90;;;;;;5022794;28;20126;-56
2023/05/07 09:18:53;;;;;;;24.17;20.30;;;16.00;99.90;;;;;;5024927;28;20040;-57
2023/05/07 09:21:20;;;;;;;24.48;19.23;;;15.90;99.90;;;;;;5023211;28;20049;-56
2023/05/07 09:23:48;;;;;;;24.77;19.05;;;16.20;99.90;;;;;;5027984;28;20275;-56
2023/05/07 09:26:14;;;;;;;25.65;18.67;;;15.60;99.90;;;;;;5023046;28;20053;-57
2023/05/07 09:28:43;;;;;;;23.67;19.38;;;15.70;99.90;;;;;;5027866;28;20490;-53
2023/05/07 09:31:10;;;;;;;28.77;21.50;;;16.20;99.90;;;;;;5021592;28;20034;-56
2023/05/07 09:33:37;;;;;;;23.20;19.08;;;15.80;99.90;;;;;;5018547;28;20144;-55
2023/05/07 09:36:12;;;;;;;25.95;20.00;;;16.30;99.90;;;;;;5018070;28;20037;-57
2023/05/07 09:38:38;;;;;;;26.63;20.83;;;16.00;99.90;;;;;;5015388;28;20485;-57
2023/05/07 09:41:09;;;;;;;25.67;19.60;;;15.60;99.90;;;;;;5021246;28;20041;-56
2023/05/07 09:43:36;;;;;;;24.50;19.73;;;15.70;99.90;;;;;;5005688;28;20049;-57
2023/05/07 09:46:11;;;;;;;24.17;19.10;;;16.30;99.90;;;;;;5027261;28;20053;-54
2023/05/07 09:48:37;;;;;;;;;;;16.00;99.90;;;;;;5026318;28;20568;-56
2023/05/07 09:51:23;;;;;;;24.05;20.00;;;16.80;99.90;;;;;;5025844;28;19921;-57
2023/05/07 09:53:52;;;;;;;24.73;19.50;;;16.60;99.90;;;;;;5019955;28;20102;-56
2023/05/07 09:56:18;;;;;;;23.05;17.88;;;16.60;99.90;;;;;;5031992;28;20502;-55
2023/05/07 09:58:45;;;;;;;26.23;19.33;;;16.80;99.90;;;;;;5020400;28;20069;-57
2023/05/07 10:01:12;;;;;;;23.55;18.15;;;17.70;99.90;;;;;;5014825;28;20132;-57
2023/05/07 10:03:40;;;;;;;24.23;17.77;;;17.00;50.20;;;;;;5022922;28;20237;-56
2023/05/07 10:06:08;;;;;;;26.35;20.00;;;17.90;54.00;;;;;;5017044;28;20371;-56
2023/05/07 10:08:35;;;;;;;23.52;19.35;;;18.70;1.00;;;;;;5024216;28;20060;-54
2023/05/07 10:11:01;;;;;;;24.90;17.83;;;18.40;1.00;;;;;;5021154;28;20041;-57
2023/05/07 10:13:27;;;;;;;21.02;18.67;;;17.50;1.00;;;;;;5019374;28;20467;-57
2023/05/07 10:15:54;;;;;;;24.52;19.35;;;17.80;99.90;;;;;;5020788;28;20102;-56
2023/05/07 10:18:29;;;;;;;23.02;17.30;;;17.80;99.90;;;;;;5024875;28;20046;-57
2023/05/07 10:21:01;;;;;;;23.55;18.30;;;18.20;99.90;;;;;;5018977;28;20045;-57
2023/05/07 10:23:28;;;;;;;23.10;18.50;;;17.70;99.90;;;;;;5028284;28;20080;-57
2023/05/07 10:25:55;;;;;;;24.10;18.83;;;17.80;99.90;;;;;;5021388;28;20052;-57
2023/05/07 10:28:22;;;;;;;24.10;20.00;;;18.30;99.90;;;;;;5027569;28;20045;-57
2023/05/07 10:31:13;;;;;;;24.60;18.05;;;18.40;99.90;;;;;;5024221;28;20048;-57
2023/05/07 10:33:40;;;;;;;23.80;18.73;;;18.00;99.90;;;;;;5018708;28;20490;-55
2023/05/07 10:36:07;;;;;;;22.30;18.63;;;17.40;99.90;;;;;;5011237;28;20047;-54
2023/05/07 10:38:33;;;;;;;27.45;20.63;;;18.50;99.90;;;;;;5022281;28;20498;-57
2023/05/07 10:40:59;;;;;;;21.58;17.90;;;17.80;99.90;;;;;;5029672;28;20807;-55
2023/05/07 10:43:25;;;;;;;24.17;19.45;;;18.90;99.90;;;;;;5001116;28;20353;-57
2023/05/07 10:46:14;;;;;;;22.73;18.35;;;18.80;99.90;;;;;;5022059;28;20037;-56
2023/05/07 10:49:08;;;;;;;25.50;19.45;;;18.40;99.90;;;;;;5023447;28;20045;-55
2023/05/07 10:51:35;;;;;;;24.92;19.20;;;18.60;99.90;;;;;;5028926;28;20722;-54
2023/05/07 10:54:10;;;;;;;22.75;19.08;;;18.60;99.90;;;;;;5019296;28;20458;-54
2023/05/07 10:56:37;;;;;;;22.45;18.27;;;18.00;99.90;;;;;;5016953;28;20045;-54
2023/05/07 10:59:26;;;;;;;22.77;18.60;;;18.80;99.90;;;;;;5002575;28;20495;-55
2023/05/07 11:01:59;;;;;;;22.27;18.45;;;18.20;99.90;;;;;;5028688;28;20048;-56
2023/05/07 11:04:28;;;;;;;21.42;18.02;;;18.70;99.90;;;;;;5014025;28;20549;-54
2023/05/07 11:07:06;;;;;;;24.95;19.42;;;18.80;99.90;;;;;;5018682;28;20779;-56
2023/05/07 11:09:53;;;;;;;22.88;19.13;;;18.20;99.90;;;;;;5016520;28;20042;-56
2023/05/07 11:12:37;;;;;;;20.90;17.55;;;18.90;99.90;;;;;;5027242;28;20044;-55
2023/05/07 11:15:05;;;;;;;23.45;19.48;;;18.40;99.90;;;;;;5022086;28;20037;-53
2023/05/07 11:17:31;;;;;;;22.95;18.90;;;19.10;99.70;;;;;;5017507;28;20876;-53
2023/05/07 11:19:57;;;;;;;24.48;18.50;;;19.40;87.00;;;;;;5027517;28;20115;-54
2023/05/07 11:22:41;;;;;;;21.88;18.13;;;18.30;61.50;;;;;;5018103;28;20045;-55
2023/05/07 11:25:07;;;;;;;22.25;19.13;;;19.20;35.50;;;;;;5020871;28;20041;-53
2023/05/07 11:27:33;;;;;;;22.40;19.02;;;18.60;38.60;;;;;;5021746;28;20048;-52
2023/05/07 11:30:00;;;;;;;24.08;19.63;;;19.20;19.90;;;;;;5022997;28;20399;-55
2023/05/07 11:32:31;;;;;;;22.65;18.95;;;19.30;3.10;;;;;;5022747;28;20037;-54
2023/05/07 11:34:58;;;;;;;22.15;17.77;;;19.20;1.00;;;;;;5028972;28;20049;-53
2023/05/07 11:37:26;;;;;;;21.67;17.77;;;18.90;1.00;;;;;;5019727;28;20346;-52
2023/05/07 11:40:10;;;;;;;22.63;18.25;;;19.60;1.00;;;;;;5020568;28;20423;-52
2023/05/07 11:42:38;;;;;;;21.10;17.23;;;19.30;1.00;;;;;;5019954;28;20128;-55
2023/05/07 11:45:08;;;;;;;20.27;17.20;;;19.10;1.00;;;;;;5019540;28;20045;-54
2023/05/07 11:47:34;;;;;;;23.35;19.17;;;19.40;1.00;;;;;;5023696;28;20746;-55
2023/05/07 11:50:23;;;;;;;22.10;17.02;;;19.50;1.00;;;;;;5024282;28;20038;-55
2023/05/07 11:52:52;;;;;;;21.30;17.85;;;19.40;1.00;;;;;;5017857;28;20385;-55
2023/05/07 11:55:19;;;;;;;19.75;16.42;;;19.50;1.00;;;;;;5024656;28;20048;-54
2023/05/07 11:57:45;;;;;;;19.48;16.38;;;20.10;1.00;;;;;;5015837;28;20510;-55
2023/05/07 12:00:11;;;;;;;20.40;17.42;;;20.10;1.00;;;;;;5027904;28;20060;-57
2023/05/07 12:02:36;;;;;;;20.35;17.20;;;20.60;99.90;;;;;;5026805;28;20033;-52
2023/05/07 12:05:05;;;;;;;18.92;15.70;;;20.50;99.90;;;;;;5025927;28;20332;-54
2023/05/07 12:07:33;;;;;;;20.45;16.60;;;20.70;99.90;;;;;;5021610;28;20041;-54
2023/05/07 12:09:59;;;;;;;18.33;15.70;;;20.50;99.90;;;;;;5021758;28;20048;-55
2023/05/07 12:12:26;;;;;;;21.40;18.10;;;20.70;99.90;;;;;;5027406;28;20510;-56
2023/05/07 12:14:52;;;;;;;19.00;15.52;;;20.60;99.90;;;;;;5023557;28;20102;-55
2023/05/07 12:17:18;;;;;;;21.73;17.23;;;21.40;99.90;;;;;;5027061;28;20251;-55
2023/05/07 12:19:45;;;;;;;21.77;18.13;;;21.00;99.90;;;;;;5020677;28;20078;-55
2023/05/07 12:22:11;;;;;;;21.17;16.85;;;22.30;99.90;;;;;;5023185;28;20041;-56
2023/05/07 12:24:47;;;;;;;19.42;15.68;;;21.10;99.90;;;;;;5021775;28;20049;-55
2023/05/07 12:27:14;;;;;;;18.75;15.35;;;21.30;99.90;;;;;;5023984;28;20037;-55
2023/05/07 12:29:44;;;;;;;17.85;14.82;;;23.70;99.90;;;;;;5019862;28;20060;-56
2023/05/07 12:32:15;;;;;;;17.67;15.18;;;26.40;99.90;;;;;;5024240;28;20106;-56